createdAt,value
2023-01-18T00:01:01.219Z,65.48
2023-01-18T00:03:27.739Z,65.20
2023-01-18T00:05:54.884Z,65.55
2023-01-18T00:08:21.256Z,65.36
2023-01-18T00:10:47.666Z,65.24
2023-01-18T00:13:13.989Z,65.39
2023-01-18T00:15:40.440Z,65.36
2023-01-18T00:18:07.202Z,65.60
2023-01-18T00:20:33.593Z,65.49
2023-01-18T00:23:04.131Z,65.53
2023-01-18T00:25:30.857Z,65.53
2023-01-18T00:27:57.556Z,65.77
2023-01-18T00:30:27.337Z,65.77
2023-01-18T00:32:56.617Z,65.97
2023-01-18T00:35:24.085Z,65.89
2023-01-18T00:37:51.860Z,66.38
2023-01-18T00:40:19.625Z,66.11
2023-01-18T00:43:04.692Z,66.09
2023-01-18T00:45:31.164Z,66.04
2023-01-18T00:47:58.333Z,65.92
2023-01-18T00:50:25.107Z,65.86
2023-01-18T00:52:56.668Z,66.17
2023-01-18T00:55:23.717Z,66.16
2023-01-18T00:57:50.413Z,66.08
2023-01-18T01:00:19.540Z,65.61
2023-01-18T01:02:46.350Z,65.73
2023-01-18T01:05:40.498Z,65.57
2023-01-18T01:08:07.429Z,65.70
2023-01-18T01:10:36.625Z,65.64
2023-01-18T01:13:21.502Z,65.96
2023-01-18T01:16:06.278Z,65.51
2023-01-18T01:18:51.117Z,65.85
2023-01-18T01:21:36.184Z,65.93
2023-01-18T01:24:21.077Z,66.51
2023-01-18T01:26:47.619Z,65.80
2023-01-18T01:29:14.128Z,65.79
2023-01-18T01:31:40.691Z,65.58
2023-01-18T01:34:07.252Z,65.68
2023-01-18T01:36:33.654Z,65.21
2023-01-18T01:39:00.113Z,65.06
2023-01-18T01:41:29.669Z,65.42
2023-01-18T01:43:58.932Z,65.60
2023-01-18T01:46:36.993Z,65.01
2023-01-18T01:49:12.836Z,65.04
2023-01-18T01:51:46.055Z,65.48
2023-01-18T01:54:23.767Z,65.11
2023-01-18T01:56:55.503Z,65.38
2023-01-18T01:59:22.646Z,65.36
2023-01-18T02:01:49.696Z,65.15
2023-01-18T02:04:16.320Z,65.77
2023-01-18T02:06:42.674Z,65.00
2023-01-18T02:09:13.199Z,65.19
2023-01-18T02:11:41.154Z,65.45
2023-01-18T02:14:10.555Z,65.04
2023-01-18T02:17:08.739Z,65.18
2023-01-18T02:20:06.836Z,65.15
2023-01-18T02:22:48.204Z,65.67
2023-01-18T02:25:39.044Z,65.30
2023-01-18T02:28:17.146Z,65.01
2023-01-18T02:30:52.966Z,65.44
2023-01-18T02:33:46.974Z,65.50
2023-01-18T02:36:26.508Z,65.30
2023-01-18T02:39:00.220Z,65.47
2023-01-18T02:42:06.939Z,65.43
2023-01-18T02:44:55.833Z,65.41
2023-01-18T02:47:24.689Z,65.19
2023-01-18T02:49:51.093Z,65.17
2023-01-18T02:52:41.254Z,64.85
2023-01-18T02:55:13.936Z,65.57
2023-01-18T02:57:40.472Z,65.55
2023-01-18T03:00:09.995Z,65.61
2023-01-18T03:02:38.214Z,65.28
2023-01-18T03:05:07.252Z,65.96
2023-01-18T03:07:58.767Z,65.54
2023-01-18T03:10:31.053Z,65.90
2023-01-18T03:13:03.924Z,65.64
2023-01-18T03:15:51.852Z,65.76
2023-01-18T03:18:21.992Z,65.59
2023-01-18T03:20:53.426Z,66.19
2023-01-18T03:23:40.983Z,66.01
2023-01-18T03:26:19.211Z,65.95
2023-01-18T03:29:10.730Z,65.88
2023-01-18T03:32:01.583Z,66.12
2023-01-18T03:34:33.254Z,65.79
2023-01-18T03:37:04.619Z,65.39
2023-01-18T03:39:42.925Z,65.84
2023-01-18T03:42:14.401Z,65.26
2023-01-18T03:44:48.013Z,65.89
2023-01-18T03:47:14.476Z,65.83
2023-01-18T03:49:41.192Z,65.53
2023-01-18T03:52:15.188Z,65.52
2023-01-18T03:54:56.771Z,65.53
2023-01-18T03:57:28.437Z,65.97
2023-01-18T03:59:55.283Z,65.85
2023-01-18T04:02:23.213Z,66.51
2023-01-18T04:04:50.027Z,66.84
2023-01-18T04:07:16.399Z,66.54
2023-01-18T04:09:42.803Z,66.20
2023-01-18T04:12:09.384Z,65.90
2023-01-18T04:14:35.743Z,65.83
2023-01-18T04:17:02.087Z,65.17
2023-01-18T04:19:28.637Z,65.01
2023-01-18T04:21:55.050Z,65.04
2023-01-18T04:24:21.438Z,65.09
2023-01-18T04:26:47.875Z,65.11
2023-01-18T04:29:14.234Z,64.62
2023-01-18T04:31:40.652Z,65.29
2023-01-18T04:34:07.199Z,64.66
2023-01-18T04:36:33.622Z,65.18
2023-01-18T04:39:00.179Z,64.92
2023-01-18T04:41:26.580Z,65.11
2023-01-18T04:43:53.039Z,64.64
2023-01-18T04:46:19.598Z,64.56
2023-01-18T04:48:50.603Z,64.65
2023-01-18T04:51:17.860Z,64.64
2023-01-18T04:53:45.025Z,64.83
2023-01-18T04:56:11.979Z,64.61
2023-01-18T04:58:38.707Z,65.05
2023-01-18T05:01:07.461Z,64.66
2023-01-18T05:03:38.387Z,64.31
2023-01-18T05:06:10.401Z,64.66
2023-01-18T05:08:41.193Z,65.02
2023-01-18T05:11:13.284Z,65.07
2023-01-18T05:13:40.457Z,64.71
2023-01-18T05:16:08.697Z,64.61
2023-01-18T05:18:35.175Z,64.73
2023-01-18T05:21:01.602Z,64.85
2023-01-18T05:23:28.124Z,65.25
2023-01-18T05:25:56.686Z,64.58
2023-01-18T05:28:24.452Z,64.87
2023-01-18T05:30:51.421Z,65.51
2023-01-18T05:33:19.179Z,65.43
2023-01-18T05:35:50.660Z,65.24
2023-01-18T05:38:17.830Z,64.63
2023-01-18T05:40:45.473Z,64.69
2023-01-18T05:43:12.721Z,64.94
2023-01-18T05:45:40.173Z,64.66
2023-01-18T05:48:06.587Z,64.48
2023-01-18T05:50:33.151Z,64.61
2023-01-18T05:53:00.418Z,65.06
2023-01-18T05:55:27.579Z,65.38
2023-01-18T05:57:54.184Z,65.31
2023-01-18T06:00:20.883Z,65.01
2023-01-18T06:02:47.246Z,65.57
2023-01-18T06:05:13.898Z,64.97
2023-01-18T06:07:42.085Z,65.16
2023-01-18T06:10:09.731Z,65.39
2023-01-18T06:12:36.206Z,65.27
2023-01-18T06:15:02.544Z,65.61
2023-01-18T06:17:31.293Z,65.86
2023-01-18T06:19:58.131Z,66.23
2023-01-18T06:22:24.484Z,66.09
2023-01-18T06:24:50.916Z,66.13
2023-01-18T06:27:17.318Z,66.07
2023-01-18T06:29:43.650Z,66.24
2023-01-18T06:32:10.071Z,65.65
2023-01-18T06:34:36.839Z,65.72
2023-01-18T06:37:04.228Z,66.11
2023-01-18T06:39:30.700Z,65.69
2023-01-18T06:41:57.030Z,66.09
2023-01-18T06:44:23.388Z,66.48
2023-01-18T06:46:49.849Z,66.11
2023-01-18T06:49:16.911Z,66.13
2023-01-18T06:51:43.323Z,66.19
2023-01-18T06:54:10.143Z,65.77
2023-01-18T06:56:36.524Z,66.27
2023-01-18T06:59:03.522Z,66.23
2023-01-18T07:01:29.996Z,66.72
2023-01-18T07:03:56.517Z,66.25
2023-01-18T07:06:22.989Z,66.60
2023-01-18T07:08:49.657Z,66.38
2023-01-18T07:11:16.260Z,66.09
2023-01-18T07:13:43.609Z,66.62
2023-01-18T07:16:18.221Z,66.42
2023-01-18T07:18:46.802Z,66.34
2023-01-18T07:21:15.143Z,66.75
2023-01-18T07:23:42.536Z,66.04
2023-01-18T07:26:11.407Z,66.38
2023-01-18T07:28:38.144Z,66.62
2023-01-18T07:31:06.118Z,66.38
2023-01-18T07:33:32.560Z,66.27
2023-01-18T07:35:59.293Z,66.20
2023-01-18T07:38:26.672Z,66.73
2023-01-18T07:41:05.163Z,66.30
2023-01-18T07:43:33.102Z,66.37
2023-01-18T07:46:00.598Z,66.39
2023-01-18T07:48:28.177Z,66.41
2023-01-18T07:51:03.942Z,66.43
2023-01-18T07:53:32.271Z,66.14
2023-01-18T07:56:00.770Z,66.32
2023-01-18T07:58:27.628Z,66.44
2023-01-18T08:00:53.984Z,66.14
2023-01-18T08:03:20.920Z,66.54
2023-01-18T08:05:47.557Z,66.13
2023-01-18T08:08:16.552Z,66.27
2023-01-18T08:10:43.887Z,66.20
2023-01-18T08:13:11.068Z,66.22
2023-01-18T08:15:39.047Z,66.28
2023-01-18T08:18:06.783Z,66.15
2023-01-18T08:20:33.478Z,66.17
2023-01-18T08:23:01.319Z,66.75
2023-01-18T08:25:29.780Z,66.93
2023-01-18T08:27:59.004Z,66.61
2023-01-18T08:30:28.112Z,66.77
2023-01-18T08:32:56.513Z,66.54
2023-01-18T08:35:34.820Z,66.91
2023-01-18T08:38:01.925Z,66.77
2023-01-18T08:40:29.907Z,66.83
2023-01-18T08:42:58.619Z,66.47
2023-01-18T08:45:25.814Z,66.37
2023-01-18T08:48:00.514Z,66.60
2023-01-18T08:50:27.859Z,66.88
2023-01-18T08:52:54.242Z,66.99
2023-01-18T08:55:22.017Z,66.66
2023-01-18T08:57:49.756Z,67.07
2023-01-18T09:00:17.431Z,67.08
2023-01-18T09:02:43.952Z,67.15
2023-01-18T09:05:10.617Z,66.58
2023-01-18T09:07:36.938Z,66.71
2023-01-18T09:10:04.355Z,66.90
2023-01-18T09:12:30.807Z,66.70
2023-01-18T09:14:57.160Z,66.83
2023-01-18T09:17:23.613Z,67.13
2023-01-18T09:19:49.919Z,66.82
2023-01-18T09:22:16.268Z,67.17
2023-01-18T09:24:42.762Z,67.21
2023-01-18T09:27:09.248Z,66.89
2023-01-18T09:29:35.647Z,67.02
2023-01-18T09:32:02.053Z,66.62
2023-01-18T09:34:28.536Z,67.03
2023-01-18T09:36:54.904Z,66.73
2023-01-18T09:39:22.299Z,66.82
2023-01-18T09:41:52.478Z,67.22
2023-01-18T09:44:29.397Z,67.05
2023-01-18T09:47:12.463Z,66.65
2023-01-18T09:50:13.462Z,66.73
2023-01-18T09:52:55.910Z,66.82
2023-01-18T09:55:43.728Z,66.48
2023-01-18T09:58:28.034Z,66.16
2023-01-18T10:00:58.838Z,66.47
2023-01-18T10:03:43.220Z,66.29
2023-01-18T10:06:19.490Z,66.29
2023-01-18T10:09:06.176Z,66.31
2023-01-18T10:11:44.942Z,66.29
2023-01-18T10:14:28.159Z,66.04
2023-01-18T10:17:00.322Z,66.22
2023-01-18T10:19:31.509Z,66.54
2023-01-18T10:22:02.348Z,66.42
2023-01-18T10:24:31.757Z,66.11
2023-01-18T10:27:23.288Z,66.29
2023-01-18T10:30:14.294Z,66.11
2023-01-18T10:32:50.671Z,66.05
2023-01-18T10:35:45.253Z,66.12
2023-01-18T10:38:15.336Z,66.17
2023-01-18T10:40:43.663Z,66.24
2023-01-18T10:43:15.739Z,66.19
2023-01-18T10:45:42.213Z,66.41
2023-01-18T10:48:17.515Z,66.68
2023-01-18T10:50:47.427Z,66.53
2023-01-18T10:53:32.798Z,66.45
2023-01-18T10:56:17.284Z,66.45
2023-01-18T10:58:46.751Z,66.82
2023-01-18T11:01:24.734Z,66.60
2023-01-18T11:04:05.762Z,66.90
2023-01-18T11:06:46.454Z,66.71
2023-01-18T11:09:39.184Z,66.98
2023-01-18T11:12:41.160Z,67.20
2023-01-18T11:15:13.646Z,67.05
2023-01-18T11:17:54.482Z,66.79
2023-01-18T11:20:28.262Z,66.98
2023-01-18T11:22:58.731Z,66.66
2023-01-18T11:25:27.601Z,66.78
2023-01-18T11:28:01.949Z,66.75
2023-01-18T11:30:28.848Z,66.96
2023-01-18T11:32:55.434Z,66.90
2023-01-18T11:35:32.803Z,66.58
2023-01-18T11:38:02.228Z,66.93
2023-01-18T11:40:32.141Z,67.08
2023-01-18T11:43:17.345Z,66.90
2023-01-18T11:45:49.781Z,66.92
2023-01-18T11:48:46.688Z,67.10
2023-01-18T11:51:22.755Z,66.97
2023-01-18T11:54:02.627Z,67.06
2023-01-18T11:56:40.625Z,66.99
2023-01-18T11:59:33.872Z,66.82
2023-01-18T12:02:30.968Z,67.00
2023-01-18T12:05:20.697Z,67.02
2023-01-18T12:07:59.951Z,67.33
2023-01-18T12:10:33.974Z,66.95
2023-01-18T12:13:28.685Z,67.06
2023-01-18T12:16:19.852Z,66.96
2023-01-18T12:19:16.792Z,66.87
2023-01-18T12:22:06.598Z,66.72
2023-01-18T12:24:42.586Z,66.86
2023-01-18T12:27:28.449Z,66.96
2023-01-18T12:30:21.436Z,66.71
2023-01-18T12:33:04.704Z,66.81
2023-01-18T12:35:49.727Z,66.74
2023-01-18T12:38:18.709Z,66.47
2023-01-18T12:40:53.942Z,66.85
2023-01-18T12:43:40.883Z,66.67
2023-01-18T12:46:10.792Z,66.55
2023-01-18T12:48:53.040Z,66.50
2023-01-18T12:51:24.224Z,66.43
2023-01-18T12:53:56.056Z,66.54
2023-01-18T12:56:32.165Z,66.69
2023-01-18T12:59:02.176Z,66.29
2023-01-18T13:01:39.010Z,66.54
2023-01-18T13:04:14.349Z,66.54
2023-01-18T13:06:42.881Z,66.63
2023-01-18T13:09:18.494Z,66.36
2023-01-18T13:11:45.026Z,66.50
2023-01-18T13:14:26.449Z,66.03
2023-01-18T13:17:13.483Z,66.16
2023-01-18T13:20:00.367Z,66.12
2023-01-18T13:22:37.240Z,66.12
2023-01-18T13:25:26.320Z,65.67
2023-01-18T13:28:02.103Z,65.51
2023-01-18T13:30:34.838Z,65.35
2023-01-18T13:33:13.319Z,65.28
2023-01-18T13:35:51.288Z,65.21
2023-01-18T13:38:27.495Z,65.08
2023-01-18T13:41:02.701Z,64.97
2023-01-18T13:43:36.382Z,64.58
2023-01-18T13:46:05.683Z,64.29
2023-01-18T13:48:54.153Z,64.65
2023-01-18T13:51:39.238Z,64.47
2023-01-18T13:54:07.687Z,64.23
2023-01-18T13:56:38.417Z,64.11
2023-01-18T13:59:14.392Z,63.94
2023-01-18T14:01:43.996Z,64.05
2023-01-18T14:04:30.659Z,64.11
2023-01-18T14:07:00.730Z,63.90
2023-01-18T14:09:36.996Z,63.65
2023-01-18T14:12:04.479Z,63.43
2023-01-18T14:14:52.432Z,63.74
2023-01-18T14:17:19.256Z,63.47
2023-01-18T14:19:48.557Z,63.28
2023-01-18T14:22:45.830Z,63.35
2023-01-18T14:25:32.640Z,63.41
2023-01-18T14:28:13.436Z,63.11
2023-01-18T14:30:43.571Z,63.11
2023-01-18T14:33:23.746Z,62.97
2023-01-18T14:35:55.476Z,63.34
2023-01-18T14:38:21.881Z,62.90
2023-01-18T14:40:52.536Z,62.83
2023-01-18T14:43:32.051Z,63.00
2023-01-18T14:46:02.571Z,63.36
2023-01-18T14:48:31.826Z,63.14
2023-01-18T14:50:59.592Z,62.91
2023-01-18T14:53:29.827Z,62.98
2023-01-18T14:56:16.571Z,62.62
2023-01-18T14:59:00.939Z,62.67
2023-01-18T15:01:37.931Z,62.69
2023-01-18T15:04:18.279Z,62.48
2023-01-18T15:06:48.889Z,62.75
2023-01-18T15:09:18.252Z,62.28
2023-01-18T15:11:45.140Z,62.85
2023-01-18T15:14:24.957Z,62.78
2023-01-18T15:16:54.978Z,62.45
2023-01-18T15:19:24.716Z,62.47
2023-01-18T15:21:51.330Z,62.44
2023-01-18T15:24:20.998Z,62.57
2023-01-18T15:26:51.381Z,62.23
2023-01-18T15:29:32.180Z,62.29
2023-01-18T15:32:04.494Z,62.58
2023-01-18T15:34:36.973Z,62.66
2023-01-18T15:37:12.034Z,62.70
2023-01-18T15:39:49.702Z,62.46
2023-01-18T15:42:17.594Z,62.62
2023-01-18T15:44:47.901Z,62.34
2023-01-18T15:47:23.483Z,62.29
2023-01-18T15:49:52.289Z,62.35
2023-01-18T15:52:45.492Z,62.69
2023-01-18T15:55:28.292Z,62.43
2023-01-18T15:58:01.343Z,62.63
2023-01-18T16:00:41.026Z,62.16
2023-01-18T16:03:25.532Z,62.64
2023-01-18T16:06:05.711Z,62.46
2023-01-18T16:08:32.610Z,62.73
2023-01-18T16:10:59.038Z,62.45
2023-01-18T16:13:31.893Z,62.81
2023-01-18T16:16:15.740Z,62.77
2023-01-18T16:18:44.833Z,62.66
2023-01-18T16:21:22.439Z,62.66
2023-01-18T16:23:52.276Z,62.70
2023-01-18T16:26:23.366Z,62.75
2023-01-18T16:28:51.535Z,62.92
2023-01-18T16:31:20.969Z,62.86
2023-01-18T16:33:47.320Z,62.78
2023-01-18T16:36:16.920Z,62.94
2023-01-18T16:38:43.403Z,62.70
2023-01-18T16:41:10.787Z,62.90
2023-01-18T16:43:37.097Z,63.13
2023-01-18T16:46:04.514Z,63.23
2023-01-18T16:48:33.437Z,63.23
2023-01-18T16:51:01.248Z,63.13
2023-01-18T16:53:29.066Z,63.24
2023-01-18T16:55:56.687Z,63.29
2023-01-18T16:58:23.965Z,63.57
2023-01-18T17:01:07.518Z,63.45
2023-01-18T17:03:35.867Z,63.68
2023-01-18T17:06:02.673Z,63.59
2023-01-18T17:08:29.100Z,63.58
2023-01-18T17:10:55.861Z,63.84
2023-01-18T17:13:22.461Z,63.72
2023-01-18T17:15:49.164Z,63.64
2023-01-18T17:18:20.616Z,63.72
2023-01-18T17:20:47.044Z,63.69
2023-01-18T17:23:13.542Z,63.65
2023-01-18T17:25:40.405Z,63.64
2023-01-18T17:28:06.923Z,63.92
2023-01-18T17:30:33.417Z,63.82
2023-01-18T17:33:02.895Z,63.91
2023-01-18T17:35:29.465Z,63.90
2023-01-18T17:38:01.056Z,63.99
2023-01-18T17:40:39.976Z,64.03
2023-01-18T17:43:15.131Z,63.87
2023-01-18T17:45:48.383Z,64.10
2023-01-18T17:48:18.272Z,64.18
2023-01-18T17:50:44.608Z,64.22
2023-01-18T17:53:10.957Z,64.11
2023-01-18T17:55:40.281Z,64.11
2023-01-18T17:58:18.836Z,64.07
2023-01-18T18:00:45.325Z,64.16
2023-01-18T18:03:11.773Z,64.30
2023-01-18T18:05:38.259Z,64.03
2023-01-18T18:08:04.824Z,64.11
2023-01-18T18:10:31.551Z,63.74
2023-01-18T18:12:58.739Z,63.98
2023-01-18T18:15:25.282Z,63.90
2023-01-18T18:17:51.620Z,63.69
2023-01-18T18:20:18.194Z,63.97
2023-01-18T18:22:44.774Z,63.62
2023-01-18T18:25:11.193Z,64.02
2023-01-18T18:27:45.572Z,63.73
2023-01-18T18:30:13.124Z,63.67
2023-01-18T18:32:39.623Z,64.08
2023-01-18T18:35:23.001Z,63.88
2023-01-18T18:37:51.546Z,63.64
2023-01-18T18:40:18.797Z,63.71
2023-01-18T18:42:49.917Z,63.80
2023-01-18T18:45:26.946Z,63.79
2023-01-18T18:47:53.525Z,63.61
2023-01-18T18:50:19.928Z,63.80
2023-01-18T18:52:46.296Z,64.03
2023-01-18T18:55:12.823Z,64.04
2023-01-18T18:57:39.342Z,63.91
2023-01-18T19:00:07.400Z,63.96
2023-01-18T19:02:34.581Z,64.16
2023-01-18T19:05:01.845Z,64.05
2023-01-18T19:07:28.285Z,63.83
2023-01-18T19:09:54.651Z,63.94
2023-01-18T19:12:21.013Z,64.15
2023-01-18T19:14:47.716Z,64.05
2023-01-18T19:17:25.204Z,64.15
2023-01-18T19:19:55.504Z,64.10
2023-01-18T19:22:21.839Z,64.20
2023-01-18T19:24:48.495Z,64.38
2023-01-18T19:27:14.867Z,64.53
2023-01-18T19:29:41.439Z,64.54
2023-01-18T19:32:07.803Z,64.56
2023-01-18T19:34:34.267Z,64.39
2023-01-18T19:37:00.657Z,64.95
2023-01-18T19:39:27.018Z,64.72
2023-01-18T19:41:53.550Z,64.59
2023-01-18T19:44:19.852Z,64.39
2023-01-18T19:46:46.394Z,64.24
2023-01-18T19:49:12.725Z,64.15
2023-01-18T19:51:41.123Z,63.90
2023-01-18T19:54:09.837Z,63.84
2023-01-18T19:56:36.248Z,64.26
2023-01-18T19:59:03.638Z,64.25
2023-01-18T20:01:36.815Z,63.84
2023-01-18T20:04:05.805Z,63.74
2023-01-18T20:06:32.901Z,63.62
2023-01-18T20:08:59.323Z,63.62
2023-01-18T20:11:25.706Z,63.43
2023-01-18T20:13:52.185Z,63.70
2023-01-18T20:16:21.772Z,63.55
2023-01-18T20:18:48.746Z,63.74
2023-01-18T20:21:18.446Z,63.81
2023-01-18T20:23:45.448Z,63.88
2023-01-18T20:26:14.522Z,63.75
2023-01-18T20:28:41.981Z,63.95
2023-01-18T20:31:10.108Z,63.63
2023-01-18T20:33:38.062Z,63.59
2023-01-18T20:36:06.237Z,63.36
2023-01-18T20:38:33.693Z,63.18
2023-01-18T20:41:00.391Z,63.37
2023-01-18T20:43:27.085Z,63.38
2023-01-18T20:46:01.810Z,63.14
2023-01-18T20:48:28.754Z,63.34
2023-01-18T20:50:58.586Z,63.21
2023-01-18T20:53:26.421Z,63.38
2023-01-18T20:55:54.951Z,63.28
2023-01-18T20:58:22.744Z,63.32
2023-01-18T21:00:49.942Z,63.54
2023-01-18T21:03:19.546Z,63.56
2023-01-18T21:05:46.340Z,63.58
2023-01-18T21:08:13.257Z,63.52
2023-01-18T21:10:41.738Z,63.45
2023-01-18T21:13:09.632Z,63.59
2023-01-18T21:15:37.140Z,63.59
2023-01-18T21:18:05.252Z,63.60
2023-01-18T21:20:31.988Z,63.49
2023-01-18T21:22:59.906Z,63.36
2023-01-18T21:25:27.804Z,63.51
2023-01-18T21:27:54.711Z,63.05
2023-01-18T21:30:21.699Z,63.29
2023-01-18T21:32:48.320Z,63.31
2023-01-18T21:35:15.106Z,62.90
2023-01-18T21:37:41.778Z,63.06
2023-01-18T21:40:09.321Z,63.29
2023-01-18T21:42:54.359Z,63.17
2023-01-18T21:45:39.145Z,63.31
2023-01-18T21:48:08.812Z,63.14
2023-01-18T21:50:57.996Z,63.46
2023-01-18T21:53:47.808Z,63.47
2023-01-18T21:56:14.257Z,63.48
2023-01-18T21:58:52.843Z,63.44
2023-01-18T22:01:34.382Z,63.12
2023-01-18T22:04:21.551Z,63.29
2023-01-18T22:06:48.742Z,63.14
2023-01-18T22:09:15.574Z,63.02
2023-01-18T22:11:42.255Z,63.01
2023-01-18T22:14:09.347Z,63.00
2023-01-18T22:16:36.422Z,62.67
2023-01-18T22:19:04.816Z,62.83
2023-01-18T22:21:32.204Z,62.96
2023-01-18T22:23:58.594Z,62.96
2023-01-18T22:26:27.485Z,62.76
2023-01-18T22:28:53.838Z,63.15
2023-01-18T22:31:20.329Z,62.93
2023-01-18T22:33:48.274Z,63.29
2023-01-18T22:36:15.974Z,62.89
2023-01-18T22:38:42.490Z,63.27
2023-01-18T22:41:17.263Z,63.25
2023-01-18T22:43:44.975Z,63.47
2023-01-18T22:46:16.706Z,63.35
2023-01-18T22:48:43.778Z,63.58
2023-01-18T22:51:16.313Z,63.63
2023-01-18T22:53:44.270Z,63.84
2023-01-18T22:56:13.772Z,63.56
2023-01-18T22:58:40.540Z,63.62
2023-01-18T23:01:28.253Z,63.38
2023-01-18T23:04:02.506Z,63.50
2023-01-18T23:06:42.193Z,63.66
2023-01-18T23:09:10.029Z,64.03
2023-01-18T23:11:37.264Z,64.18
2023-01-18T23:14:23.487Z,63.73
2023-01-18T23:17:08.283Z,63.79
2023-01-18T23:19:34.921Z,63.92
2023-01-18T23:22:07.316Z,63.93
2023-01-18T23:24:35.693Z,64.13
2023-01-18T23:27:03.478Z,63.96
2023-01-18T23:29:29.914Z,63.84
2023-01-18T23:31:57.634Z,63.55
2023-01-18T23:34:24.810Z,63.62
2023-01-18T23:36:51.175Z,63.39
2023-01-18T23:39:36.380Z,63.55
2023-01-18T23:42:21.635Z,63.71
2023-01-18T23:45:06.386Z,64.04
2023-01-18T23:47:51.067Z,63.93
2023-01-18T23:50:35.945Z,63.72
2023-01-18T23:53:20.535Z,64.00
2023-01-18T23:55:47.116Z,63.98
2023-01-18T23:58:13.451Z,64.06
